Time;durP1;ratioP1;P1;durP2;ratioP2;P2;SDS_P1;SDS_P2;PMS_P1;PMS_P2;Temp;Humidity;BMP_temperature;BMP_pressure;BME280_temperature;BME280_humidity;BME280_pressure;Samples;Min_cycle;Max_cycle;Signal;HPM_P1;HPM_P2
2021/05/09 00:03:32;;;;;;;3.63;1.50;;;12.40;99.90;;;;;;12205566;28;20048;-80
2021/05/09 00:09:34;;;;;;;2.47;1.40;;;12.40;99.90;;;;;;12212466;28;20086;-80
2021/05/09 00:15:35;;;;;;;2.75;1.35;;;12.40;99.90;;;;;;12207875;28;20075;-80
2021/05/09 00:21:37;;;;;;;6.18;1.40;;;12.40;99.90;;;;;;12211873;28;20518;-80
2021/05/09 00:27:42;;;;;;;2.55;1.35;;;12.30;99.90;;;;;;12210728;28;20048;-81
2021/05/09 00:33:44;;;;;;;5.75;1.67;;;12.50;99.90;;;;;;12215243;28;20151;-80
2021/05/09 00:39:45;;;;;;;4.03;1.40;;;12.60;99.90;;;;;;12210704;28;20508;-80
2021/05/09 00:45:47;;;;;;;2.92;1.50;;;12.50;99.90;;;;;;12207278;28;20508;-79
2021/05/09 00:51:50;;;;;;;5.40;1.65;;;12.60;99.90;;;;;;12207655;28;20994;-79
2021/05/09 00:57:53;;;;;;;2.90;1.27;;;12.60;99.90;;;;;;12203659;28;20130;-79
2021/05/09 01:03:55;;;;;;;3.63;1.30;;;12.50;99.90;;;;;;12198009;28;20084;-80
2021/05/09 01:10:00;;;;;;;2.67;1.33;;;12.60;99.90;;;;;;12212585;28;20473;-80
2021/05/09 01:16:01;;;;;;;;;;;12.50;99.90;;;;;;12203468;28;20063;-81
2021/05/09 01:22:10;;;;;;;3.22;1.20;;;12.50;99.90;;;;;;12207152;28;19931;-80
2021/05/09 01:28:12;;;;;;;2.28;1.13;;;12.50;99.90;;;;;;12204571;28;20072;-81
2021/05/09 01:34:13;;;;;;;4.82;1.60;;;12.30;99.90;;;;;;12221388;28;20051;-81
2021/05/09 01:40:15;;;;;;;3.83;1.50;;;12.20;99.90;;;;;;12215506;28;20093;-81
2021/05/09 01:46:17;;;;;;;3.17;1.30;;;12.00;99.90;;;;;;12217394;28;20079;-82
2021/05/09 01:52:19;;;;;;;3.67;1.65;;;11.80;99.90;;;;;;12229550;28;20497;-81
2021/05/09 01:58:21;;;;;;;2.67;1.30;;;11.80;99.90;;;;;;12236840;28;20036;-80
2021/05/09 02:04:22;;;;;;;2.75;1.40;;;11.80;99.90;;;;;;12218845;28;20082;-81
2021/05/09 02:10:24;;;;;;;3.65;1.45;;;11.70;99.90;;;;;;12213255;28;20571;-80
2021/05/09 02:16:25;;;;;;;2.55;1.55;;;11.60;99.90;;;;;;12208052;28;20055;-80
2021/05/09 02:22:26;;;;;;;3.40;1.40;;;11.60;99.90;;;;;;12212094;28;20055;-80
2021/05/09 02:28:29;;;;;;;3.30;1.60;;;11.60;99.90;;;;;;12220643;28;20075;-81
2021/05/09 02:34:32;;;;;;;2.72;1.50;;;11.50;99.90;;;;;;12216353;28;20460;-80
2021/05/09 02:40:33;;;;;;;5.10;1.65;;;11.50;99.90;;;;;;12224043;28;20463;-80
2021/05/09 02:46:35;;;;;;;4.82;1.42;;;11.50;99.90;;;;;;12215573;28;20055;-81
2021/05/09 02:52:36;;;;;;;4.93;1.50;;;11.60;99.90;;;;;;12291019;28;20121;-80
2021/05/09 02:58:37;;;;;;;4.57;1.60;;;11.50;99.90;;;;;;12210153;28;20080;-80
2021/05/09 03:04:39;;;;;;;2.78;1.63;;;11.50;99.90;;;;;;12209919;28;20048;-80
2021/05/09 03:10:40;;;;;;;3.10;1.58;;;11.40;99.90;;;;;;12204683;28;20080;-80
2021/05/09 03:16:42;;;;;;;5.45;2.13;;;11.40;99.90;;;;;;12156561;28;20079;-80
2021/05/09 03:22:43;;;;;;;3.00;1.50;;;11.50;99.90;;;;;;12153433;28;20056;-81
2021/05/09 03:28:44;;;;;;;2.83;1.63;;;11.60;99.90;;;;;;12157005;29;20135;-80
2021/05/09 03:34:46;;;;;;;4.65;1.70;;;11.60;99.90;;;;;;12153698;29;20971;-80
2021/05/09 03:40:47;;;;;;;2.92;1.60;;;11.60;99.90;;;;;;12153030;28;20128;-80
2021/05/09 03:46:48;;;;;;;4.63;1.90;;;11.70;99.90;;;;;;12164707;28;20856;-80
2021/05/09 03:52:50;;;;;;;3.53;1.63;;;11.70;99.90;;;;;;12164514;28;21586;-80
2021/05/09 03:58:51;;;;;;;2.92;1.63;;;11.70;99.90;;;;;;12159473;28;20091;-81
2021/05/09 04:04:52;;;;;;;3.75;1.70;;;11.60;99.90;;;;;;12200576;28;20520;-80
2021/05/09 04:10:56;;;;;;;4.55;1.75;;;11.50;99.90;;;;;;12208881;28;20082;-81
2021/05/09 04:16:57;;;;;;;3.23;1.90;;;11.60;99.90;;;;;;12210752;28;20051;-81
2021/05/09 04:23:18;;;;;;;3.58;1.90;;;11.60;99.90;;;;;;12209189;28;20075;-80
2021/05/09 04:29:20;;;;;;;6.13;2.03;;;11.80;99.90;;;;;;12210649;28;20134;-81
2021/05/09 04:35:21;;;;;;;6.78;1.80;;;11.90;99.90;;;;;;12208990;28;20067;-80
2021/05/09 04:41:22;;;;;;;3.78;1.60;;;12.10;99.90;;;;;;12216107;28;20531;-81
2021/05/09 04:47:23;;;;;;;5.72;2.03;;;12.20;99.90;;;;;;12212999;28;20119;-82
2021/05/09 04:53:28;;;;;;;4.28;1.60;;;12.30;99.90;;;;;;12220176;28;20082;-81
2021/05/09 04:59:30;;;;;;;4.00;1.50;;;12.70;99.90;;;;;;12211619;28;20598;-81
2021/05/09 05:05:31;;;;;;;3.28;1.75;;;13.40;99.90;;;;;;12214822;28;20080;-82
2021/05/09 05:11:34;;;;;;;4.82;1.60;;;13.20;99.90;;;;;;12210697;28;20056;-82
2021/05/09 05:17:36;;;;;;;4.57;2.08;;;13.20;99.90;;;;;;12215971;28;20076;-81
2021/05/09 05:23:37;;;;;;;3.25;1.80;;;13.30;99.90;;;;;;12202855;28;21519;-82
2021/05/09 05:29:38;;;;;;;4.15;1.55;;;13.30;99.90;;;;;;12214080;28;20052;-82
2021/05/09 05:35:40;;;;;;;3.88;1.67;;;13.60;99.90;;;;;;12206472;28;20078;-82
2021/05/09 05:41:41;;;;;;;5.10;1.70;;;15.20;99.90;;;;;;12210322;28;20475;-81
2021/05/09 05:47:42;;;;;;;5.47;1.55;;;14.60;99.90;;;;;;12213851;28;20083;-82
2021/05/09 05:53:44;;;;;;;2.72;1.42;;;14.40;99.90;;;;;;12293097;28;20044;-81
2021/05/09 05:59:45;;;;;;;8.20;2.40;;;13.90;99.90;;;;;;12213234;28;20079;-81
2021/05/09 06:05:47;;;;;;;3.38;1.58;;;13.90;99.90;;;;;;12216299;28;20560;-82
2021/05/09 06:11:48;;;;;;;4.55;1.60;;;14.10;99.90;;;;;;12216308;28;20039;-82
2021/05/09 06:17:50;;;;;;;3.90;1.63;;;14.50;99.90;;;;;;12220254;28;20300;-81
2021/05/09 06:23:51;;;;;;;3.88;1.85;;;14.80;99.90;;;;;;12224858;28;20461;-81
2021/05/09 06:29:53;;;;;;;3.70;1.65;;;15.10;99.90;;;;;;12216415;28;20138;-82
2021/05/09 06:35:56;;;;;;;5.43;1.63;;;15.40;99.90;;;;;;12227849;28;20083;-82
2021/05/09 06:41:58;;;;;;;2.55;1.60;;;15.70;99.90;;;;;;12228818;28;20051;-81
2021/05/09 06:48:03;;;;;;;4.50;1.75;;;16.00;99.90;;;;;;12217532;28;20154;-81
2021/05/09 06:54:05;;;;;;;3.38;1.50;;;16.20;99.90;;;;;;12234309;28;20056;-81
2021/05/09 07:00:08;;;;;;;5.60;1.55;;;16.40;99.90;;;;;;12282714;28;20059;-82
2021/05/09 07:06:10;;;;;;;2.95;1.58;;;16.60;99.90;;;;;;12210856;28;20055;-82
2021/05/09 07:12:11;;;;;;;2.72;1.70;;;16.70;99.90;;;;;;12213216;28;20052;-81
2021/05/09 07:18:19;;;;;;;3.72;1.27;;;16.90;99.90;;;;;;12216250;28;20044;-81
2021/05/09 07:24:21;;;;;;;7.80;1.23;;;17.30;99.90;;;;;;12204843;28;20599;-82
2021/05/09 07:30:22;;;;;;;4.95;1.67;;;17.60;99.90;;;;;;12210121;28;20469;-81
2021/05/09 07:36:23;;;;;;;4.75;1.52;;;17.80;99.90;;;;;;12202929;28;20123;-82
2021/05/09 07:42:25;;;;;;;3.05;1.60;;;18.00;99.90;;;;;;12209139;28;20171;-83
2021/05/09 07:48:27;;;;;;;4.50;1.50;;;18.10;99.90;;;;;;12216821;28;20063;-83
2021/05/09 07:54:29;;;;;;;3.72;1.77;;;18.20;99.90;;;;;;12194383;28;580654;-82
2021/05/09 08:00:30;;;;;;;2.92;1.40;;;18.50;99.90;;;;;;12220991;28;20048;-82
2021/05/09 08:06:31;;;;;;;4.97;1.70;;;18.70;99.90;;;;;;12220722;28;20078;-82
2021/05/09 08:12:33;;;;;;;3.53;1.60;;;18.80;99.90;;;;;;12217974;28;20524;-83
2021/05/09 08:18:41;;;;;;;3.45;1.70;;;19.00;99.90;;;;;;12219593;28;20051;-82
2021/05/09 08:24:42;;;;;;;3.08;1.35;;;19.10;99.90;;;;;;12223197;28;20056;-81
2021/05/09 08:30:44;;;;;;;3.00;1.35;;;19.20;99.90;;;;;;12213781;28;20134;-83
2021/05/09 08:36:45;;;;;;;3.47;1.33;;;19.50;99.90;;;;;;12207514;28;20051;-83
2021/05/09 08:42:49;;;;;;;2.53;1.48;;;19.70;99.90;;;;;;12208518;28;20060;-82
2021/05/09 08:48:53;;;;;;;2.80;1.20;;;19.80;99.90;;;;;;12215359;28;20132;-82
2021/05/09 08:54:55;;;;;;;2.28;1.10;;;19.90;99.90;;;;;;12206239;28;20454;-83
2021/05/09 09:00:56;;;;;;;3.70;1.30;;;20.00;99.90;;;;;;12209397;28;20052;-82
2021/05/09 09:07:01;;;;;;;2.38;1.10;;;20.10;99.90;;;;;;12219125;28;20134;-83
2021/05/09 09:13:17;;;;;;;3.88;1.48;;;20.70;99.90;;;;;;12199469;28;20048;-83
2021/05/09 09:19:18;;;;;;;3.72;1.25;;;20.60;99.90;;;;;;12206507;28;20043;-82
2021/05/09 09:25:25;;;;;;;4.15;1.35;;;21.00;99.90;;;;;;12201302;28;20043;-83
2021/05/09 09:31:44;;;;;;;2.17;0.93;;;21.00;99.90;;;;;;12204983;28;20131;-82
2021/05/09 09:37:45;;;;;;;3.33;1.10;;;21.40;99.90;;;;;;12208349;28;20074;-83
2021/05/09 09:44:08;;;;;;;2.75;1.30;;;21.60;99.90;;;;;;12212106;28;20040;-83
2021/05/09 09:50:32;;;;;;;2.37;1.30;;;22.10;99.90;;;;;;12214069;28;20056;-83
2021/05/09 09:56:41;;;;;;;;;;;22.50;99.90;;;;;;12202184;28;20135;-82
2021/05/09 10:02:44;;;;;;;3.10;1.25;;;22.40;99.90;;;;;;12217126;28;19931;-82
2021/05/09 10:08:47;;;;;;;5.22;1.20;;;22.90;99.90;;;;;;12283949;28;20051;-84
2021/05/09 10:14:48;;;;;;;3.00;1.10;;;23.10;99.90;;;;;;12211567;28;20055;-83
2021/05/09 10:20:50;;;;;;;4.75;1.10;;;23.30;99.90;;;;;;12223380;28;20115;-83
2021/05/09 10:27:03;;;;;;;1.95;1.08;;;23.40;99.90;;;;;;12208811;28;20052;-83
2021/05/09 10:33:05;;;;;;;1.88;1.00;;;23.30;99.90;;;;;;12202844;28;21237;-83
2021/05/09 10:39:09;;;;;;;3.80;1.25;;;23.40;99.90;;;;;;12227075;28;20095;-83
2021/05/09 10:45:10;;;;;;;;;;;23.50;99.90;;;;;;12215946;28;20119;-84
2021/05/09 10:51:14;;;;;;;2.30;1.20;;;23.60;99.90;;;;;;12215711;28;20613;-84
2021/05/09 10:57:43;;;;;;;2.88;1.30;;;24.10;99.90;;;;;;12217544;28;20480;-83
2021/05/09 11:03:55;;;;;;;1.73;1.10;;;24.60;99.90;;;;;;12214757;28;20070;-83
2021/05/09 11:09:57;;;;;;;1.73;1.13;;;24.90;99.90;;;;;;12225404;28;24368;-83
2021/05/09 11:16:17;;;;;;;3.45;1.30;;;24.90;99.90;;;;;;12219778;28;20062;-82
2021/05/09 11:22:20;;;;;;;2.75;1.10;;;24.80;99.90;;;;;;12228231;28;20040;-84
2021/05/09 11:28:27;;;;;;;2.85;1.17;;;25.20;99.90;;;;;;12240348;28;20056;-83
2021/05/09 11:34:28;;;;;;;4.00;1.30;;;25.20;99.90;;;;;;12209831;28;20070;-83
2021/05/09 11:40:30;;;;;;;4.18;1.35;;;25.10;99.90;;;;;;12208262;28;20589;-82
2021/05/09 11:46:35;;;;;;;3.17;1.30;;;25.00;99.90;;;;;;12220653;28;20094;-84
2021/05/09 11:52:40;;;;;;;4.45;1.30;;;25.50;99.90;;;;;;12208504;28;20078;-84
2021/05/09 11:58:44;;;;;;;2.20;1.40;;;25.20;99.90;;;;;;12207081;28;20090;-84
2021/05/09 12:04:49;;;;;;;3.30;1.40;;;24.90;99.90;;;;;;12216163;28;20047;-82
2021/05/09 12:10:50;;;;;;;3.95;1.40;;;25.20;99.90;;;;;;12220204;28;20041;-83
2021/05/09 12:16:57;;;;;;;4.93;1.38;;;25.50;99.90;;;;;;12211757;28;20051;-82
2021/05/09 12:23:07;;;;;;;3.17;1.30;;;25.90;99.90;;;;;;12202070;28;20047;-84
2021/05/09 12:29:16;;;;;;;2.50;1.30;;;25.50;99.90;;;;;;12204157;28;20398;-82
2021/05/09 12:35:18;;;;;;;2.50;1.15;;;24.90;99.90;;;;;;12205245;28;20083;-84
2021/05/09 12:41:20;;;;;;;5.18;1.35;;;24.80;99.90;;;;;;12213011;28;20053;-84
2021/05/09 12:47:21;;;;;;;6.03;1.50;;;25.00;99.90;;;;;;12211555;28;20087;-82
2021/05/09 12:53:44;;;;;;;4.40;1.20;;;25.10;99.90;;;;;;12217243;28;20615;-82
2021/05/09 12:59:46;;;;;;;4.68;1.30;;;25.10;99.90;;;;;;12203022;28;20131;-82
2021/05/09 13:05:51;;;;;;;4.77;1.50;;;25.30;99.90;;;;;;12203916;28;20123;-83
2021/05/09 13:11:53;;;;;;;5.32;1.42;;;25.60;99.90;;;;;;12218033;28;20063;-85
2021/05/09 13:17:55;;;;;;;5.97;1.20;;;25.60;99.90;;;;;;12208831;28;20699;-83
2021/05/09 13:23:57;;;;;;;3.03;1.15;;;25.70;99.90;;;;;;12210784;28;20504;-81
2021/05/09 13:30:05;;;;;;;1.92;0.98;;;25.90;99.90;;;;;;12200652;28;20082;-84
2021/05/09 13:36:07;;;;;;;2.10;1.10;;;26.50;99.90;;;;;;12192911;28;20509;-85
2021/05/09 13:42:08;;;;;;;2.13;1.10;;;26.90;99.90;;;;;;12228377;28;20048;-83
2021/05/09 13:48:11;;;;;;;2.67;1.23;;;27.00;99.90;;;;;;12209923;28;20499;-84
2021/05/09 13:54:13;;;;;;;2.23;1.10;;;27.10;99.90;;;;;;12210823;28;20449;-85
2021/05/09 14:00:15;;;;;;;4.32;1.13;;;27.10;99.90;;;;;;12207588;28;20071;-84
2021/05/09 14:06:17;;;;;;;2.63;1.10;;;27.20;99.90;;;;;;12216249;28;20044;-85
2021/05/09 14:12:18;;;;;;;3.85;1.27;;;27.60;99.90;;;;;;12211570;28;20143;-84
2021/05/09 14:18:20;;;;;;;3.97;1.20;;;27.50;99.90;;;;;;12217563;28;20051;-83
2021/05/09 14:24:21;;;;;;;3.17;1.30;;;27.60;99.90;;;;;;12209615;28;20624;-84
2021/05/09 14:30:22;;;;;;;3.30;1.00;;;27.50;99.90;;;;;;12222347;28;20084;-84
2021/05/09 14:36:24;;;;;;;6.03;1.40;;;27.60;99.90;;;;;;12215622;28;20040;-85
2021/05/09 14:42:25;;;;;;;3.03;1.40;;;27.60;99.90;;;;;;12209163;28;20096;-85
2021/05/09 14:48:27;;;;;;;2.10;1.20;;;27.90;99.90;;;;;;12216125;28;20378;-84
2021/05/09 14:54:29;;;;;;;5.47;1.33;;;27.80;99.30;;;;;;12214286;28;20089;-84
2021/05/09 15:00:30;;;;;;;3.63;1.30;;;27.70;98.40;;;;;;12240046;28;20044;-82
2021/05/09 15:06:31;;;;;;;3.47;1.02;;;27.00;98.90;;;;;;12248600;28;20056;-83
2021/05/09 15:12:33;;;;;;;3.03;1.23;;;26.80;97.30;;;;;;12229609;28;20193;-85
2021/05/09 15:18:34;;;;;;;1.83;1.13;;;27.10;96.80;;;;;;12216778;28;20043;-86
2021/05/09 15:24:36;;;;;;;1.92;1.00;;;27.00;95.20;;;;;;12213415;28;20052;-84
2021/05/09 15:30:38;;;;;;;2.57;1.10;;;27.20;96.10;;;;;;12213456;28;20044;-84
2021/05/09 15:36:41;;;;;;;2.22;1.10;;;27.10;95.00;;;;;;12227838;28;20051;-85
2021/05/09 15:42:43;;;;;;;4.57;1.40;;;27.10;94.60;;;;;;12206117;28;20408;-85
2021/05/09 15:48:44;;;;;;;4.32;1.05;;;27.10;95.20;;;;;;12214231;28;20090;-86
2021/05/09 15:54:46;;;;;;;3.20;1.13;;;27.10;93.80;;;;;;12207934;28;20048;-84
2021/05/09 16:00:47;;;;;;;3.40;1.10;;;27.00;92.70;;;;;;12204654;28;20047;-84
2021/05/09 16:06:48;;;;;;;5.65;1.30;;;27.00;94.20;;;;;;12212188;28;20062;-84
2021/05/09 16:12:53;;;;;;;3.08;1.10;;;27.00;93.20;;;;;;12207176;28;20063;-84
2021/05/09 16:18:55;;;;;;;2.95;1.20;;;26.90;92.40;;;;;;12207761;28;20052;-84
2021/05/09 16:24:57;;;;;;;6.68;1.17;;;27.20;93.80;;;;;;12204493;28;20440;-83
2021/05/09 16:30:58;;;;;;;1.83;1.23;;;27.30;93.20;;;;;;12203400;28;20048;-83
2021/05/09 16:37:00;;;;;;;3.38;1.58;;;27.00;93.00;;;;;;12209944;28;20134;-83
2021/05/09 16:43:01;;;;;;;3.17;1.00;;;26.90;92.40;;;;;;12197457;28;20091;-84
2021/05/09 16:49:04;;;;;;;2.72;1.20;;;27.20;94.00;;;;;;12202373;28;20090;-85
2021/05/09 16:55:08;;;;;;;3.72;1.20;;;26.60;93.20;;;;;;12216301;28;20087;-85
2021/05/09 17:01:09;;;;;;;3.05;1.10;;;26.40;93.20;;;;;;12210848;28;20055;-85
2021/05/09 17:07:10;;;;;;;1.83;1.00;;;26.20;94.10;;;;;;12203135;28;21164;-85
2021/05/09 17:13:20;;;;;;;4.50;1.30;;;26.10;93.70;;;;;;12196360;28;20052;-85
2021/05/09 17:19:22;;;;;;;3.25;1.20;;;25.80;95.20;;;;;;12196393;28;20428;-85
2021/05/09 17:25:23;;;;;;;3.75;1.15;;;25.60;96.30;;;;;;12203233;28;20135;-85
2021/05/09 17:31:24;;;;;;;3.50;1.30;;;25.30;95.70;;;;;;12206726;28;20071;-85
2021/05/09 17:37:26;;;;;;;4.45;1.30;;;25.10;94.70;;;;;;12202667;28;20400;-84
2021/05/09 17:43:30;;;;;;;2.00;1.20;;;25.50;94.80;;;;;;12200695;28;20075;-85
2021/05/09 17:49:32;;;;;;;3.38;1.05;;;25.60;93.20;;;;;;12202571;28;20283;-85
2021/05/09 17:55:33;;;;;;;1.92;1.10;;;25.70;93.80;;;;;;12201789;28;20068;-85
2021/05/09 18:01:34;;;;;;;2.58;1.30;;;25.70;93.10;;;;;;12213915;28;20165;-86
2021/05/09 18:07:37;;;;;;;2.72;1.17;;;25.40;94.20;;;;;;12214904;28;20052;-85
2021/05/09 18:13:39;;;;;;;2.40;1.02;;;25.00;94.50;;;;;;12220617;28;20048;-84
2021/05/09 18:25:41;;;;;;;5.22;1.40;;;24.50;95.80;;;;;;12217556;28;20068;-86
2021/05/09 18:31:43;;;;;;;3.75;1.23;;;24.30;95.90;;;;;;12212072;28;20071;-84
2021/05/09 18:37:45;;;;;;;3.60;1.20;;;24.00;96.60;;;;;;12226997;28;20053;-85
2021/05/09 18:43:47;;;;;;;3.25;1.50;;;23.90;96.50;;;;;;12264003;28;20049;-85
2021/05/09 18:49:49;;;;;;;4.18;1.10;;;23.60;97.80;;;;;;12207280;28;20090;-84
2021/05/09 18:55:51;;;;;;;2.70;1.10;;;23.40;97.30;;;;;;12199202;28;20060;-85
2021/05/09 19:01:54;;;;;;;4.10;1.17;;;23.20;98.00;;;;;;12207504;28;20496;-85
2021/05/09 19:07:55;;;;;;;5.47;1.20;;;23.10;97.50;;;;;;12216384;28;20291;-85
2021/05/09 19:13:57;;;;;;;2.50;1.30;;;22.90;98.00;;;;;;12204226;28;20090;-84
2021/05/09 19:19:58;;;;;;;4.50;1.30;;;22.60;99.00;;;;;;12205288;28;20055;-84
2021/05/09 19:25:59;;;;;;;4.43;1.50;;;22.20;99.90;;;;;;12204311;28;20500;-85
2021/05/09 19:32:01;;;;;;;6.47;1.40;;;22.00;99.90;;;;;;12215732;28;20047;-83
2021/05/09 19:38:02;;;;;;;3.58;1.40;;;21.80;99.90;;;;;;12209380;28;20661;-83
2021/05/09 19:44:04;;;;;;;2.70;1.20;;;21.70;99.90;;;;;;12205802;28;21984;-83
2021/05/09 19:50:09;;;;;;;3.15;1.20;;;21.70;99.90;;;;;;12213492;28;20134;-83
2021/05/09 19:56:10;;;;;;;3.38;1.00;;;21.60;99.90;;;;;;12221317;28;20060;-82
2021/05/09 20:02:11;;;;;;;2.97;1.05;;;22.00;98.40;;;;;;12212784;28;20130;-84
2021/05/09 20:08:13;;;;;;;4.47;1.13;;;22.20;96.40;;;;;;12204466;28;20048;-83
2021/05/09 20:14:14;;;;;;;2.85;0.98;;;22.30;95.40;;;;;;12218247;28;20600;-83
2021/05/09 20:20:16;;;;;;;2.58;1.10;;;22.40;94.30;;;;;;12210719;28;20099;-83
2021/05/09 20:26:17;;;;;;;4.82;0.90;;;22.50;93.90;;;;;;12216657;28;20128;-83
2021/05/09 20:32:19;;;;;;;5.60;0.90;;;22.60;92.60;;;;;;12220593;28;20131;-83
2021/05/09 20:38:20;;;;;;;4.32;0.80;;;22.50;93.00;;;;;;12214202;28;20201;-83
2021/05/09 20:44:21;;;;;;;3.10;1.00;;;22.20;93.60;;;;;;12212200;28;20043;-83
2021/05/09 20:50:23;;;;;;;5.13;0.90;;;22.20;92.90;;;;;;12213689;28;20051;-82
2021/05/09 20:56:24;;;;;;;1.73;0.80;;;22.20;92.00;;;;;;12209255;28;20055;-83
2021/05/09 21:02:26;;;;;;;2.80;0.90;;;22.20;92.30;;;;;;12217420;28;20078;-83
2021/05/09 21:08:27;;;;;;;2.28;0.63;;;22.10;92.50;;;;;;12215726;28;20197;-83
2021/05/09 21:14:30;;;;;;;3.45;0.90;;;22.00;92.20;;;;;;12208531;28;20052;-83
2021/05/09 21:20:31;;;;;;;2.73;1.10;;;21.90;92.30;;;;;;12213589;28;20059;-82
2021/05/09 21:26:33;;;;;;;1.63;0.88;;;21.80;91.90;;;;;;12210592;28;20066;-83
2021/05/09 21:32:34;;;;;;;3.67;1.00;;;21.60;92.30;;;;;;12216030;28;20513;-83
2021/05/09 21:38:35;;;;;;;2.45;1.00;;;21.70;91.60;;;;;;12217338;28;20055;-83
2021/05/09 21:44:37;;;;;;;2.00;0.98;;;21.40;92.70;;;;;;12217692;28;20035;-83
2021/05/09 21:50:38;;;;;;;2.35;0.85;;;21.30;92.80;;;;;;12219397;28;20048;-83
2021/05/09 21:56:39;;;;;;;2.15;1.02;;;21.20;92.70;;;;;;12214023;28;20129;-83
2021/05/09 22:02:41;;;;;;;2.88;0.90;;;21.10;93.30;;;;;;12212446;28;20512;-83
2021/05/09 22:08:42;;;;;;;1.75;0.85;;;21.00;93.50;;;;;;12219980;28;20489;-83
2021/05/09 22:14:44;;;;;;;3.75;0.88;;;20.60;94.20;;;;;;12218773;28;20051;-83
2021/05/09 22:20:45;;;;;;;2.45;0.95;;;20.70;94.00;;;;;;12212400;28;20119;-82
2021/05/09 22:26:47;;;;;;;4.22;0.88;;;20.60;94.00;;;;;;12233570;28;20051;-82
2021/05/09 22:32:49;;;;;;;1.73;0.80;;;20.50;93.90;;;;;;12212823;28;20519;-82
2021/05/09 22:38:50;;;;;;;2.08;0.88;;;20.50;94.30;;;;;;12250185;28;20040;-83
2021/05/09 22:44:51;;;;;;;2.38;0.90;;;20.40;94.30;;;;;;12186047;28;20044;-82
2021/05/09 22:50:53;;;;;;;4.05;1.00;;;20.30;94.70;;;;;;12156489;28;20045;-82
2021/05/09 22:56:54;;;;;;;3.97;1.00;;;20.30;95.00;;;;;;12159751;28;20048;-82
2021/05/09 23:02:56;;;;;;;3.95;1.10;;;20.20;95.90;;;;;;12182680;28;20496;-83
2021/05/09 23:08:57;;;;;;;3.38;1.17;;;20.10;96.30;;;;;;12214444;28;20067;-83
2021/05/09 23:14:58;;;;;;;3.03;1.20;;;19.80;97.10;;;;;;12215001;29;20130;-83
2021/05/09 23:27:20;;;;;;;4.10;1.00;;;19.90;97.50;;;;;;12208220;29;20052;-82
2021/05/09 23:33:22;;;;;;;2.92;1.10;;;20.10;96.90;;;;;;12231707;28;20042;-82
2021/05/09 23:39:23;;;;;;;3.67;1.20;;;20.20;97.00;;;;;;12207283;28;20052;-82
2021/05/09 23:45:27;;;;;;;3.83;1.30;;;20.30;97.20;;;;;;12222022;28;20048;-82
2021/05/09 23:51:28;;;;;;;3.25;1.30;;;20.20;97.50;;;;;;12198336;28;20174;-82
2021/05/09 23:57:30;;;;;;;3.35;1.05;;;20.10;98.60;;;;;;12205442;28;21124;-82
